Time;durP1;ratioP1;P1;durP2;ratioP2;P2;SDS_P1;SDS_P2;PMS_P1;PMS_P2;Temp;Humidity;BMP_temperature;BMP_pressure;BME280_temperature;BME280_humidity;BME280_pressure;Samples;Min_cycle;Max_cycle;Signal;HPM_P1;HPM_P2
2021/08/02 00:02:50;;;;;;;2.50;2.30;;;;;;;16.14;88.01;98672.88;10454280;28;20215;-73
2021/08/02 00:08:10;;;;;;;4.47;2.30;;;;;;;16.16;88.51;98673.19;10462009;28;20175;-74
2021/08/02 00:13:35;;;;;;;4.00;2.20;;;;;;;16.26;87.73;98672.88;10461838;28;20171;-74
2021/08/02 00:18:55;;;;;;;2.17;2.03;;;;;;;16.18;88.29;98667.97;10459213;28;20219;-73
2021/08/02 00:24:15;;;;;;;4.13;2.77;;;;;;;16.14;89.08;98672.88;10474107;28;20206;-74
2021/08/02 00:29:34;;;;;;;2.63;1.93;;;;;;;16.15;89.52;98663.34;10468125;28;20179;-74
2021/08/02 00:34:53;;;;;;;2.47;2.27;;;;;;;16.14;89.35;98670.09;10460740;28;20604;-74
2021/08/02 00:40:22;;;;;;;2.33;2.20;;;;;;;15.92;90.90;98676.78;10460067;28;20716;-74
2021/08/02 00:45:43;;;;;;;2.93;2.73;;;;;;;16.00;90.31;98682.44;10459288;28;20179;-74
2021/08/02 00:51:04;;;;;;;2.50;2.40;;;;;;;15.89;91.43;98680.41;10460231;28;20175;-73
2021/08/02 00:56:23;;;;;;;3.37;2.37;;;;;;;15.89;91.40;98683.19;10493309;28;20273;-74
2021/08/02 01:01:43;;;;;;;2.90;2.70;;;;;;;15.94;91.16;98686.19;10499373;28;20732;-74
2021/08/02 01:07:08;;;;;;;3.67;3.37;;;;;;;15.82;92.08;98684.22;10500925;28;20182;-74
2021/08/02 01:12:30;;;;;;;3.30;2.73;;;;;;;15.77;92.44;98697.84;10500804;28;20175;-74
2021/08/02 01:17:49;;;;;;;4.23;3.20;;;;;;;15.73;93.21;98692.41;10499410;28;20265;-75
2021/08/02 01:23:12;;;;;;;3.30;3.00;;;;;;;15.65;93.69;98695.84;10492240;28;20210;-74
2021/08/02 01:28:31;;;;;;;2.50;2.30;;;;;;;15.69;93.90;98697.28;10458813;28;20179;-75
2021/08/02 01:33:50;;;;;;;3.17;2.87;;;;;;;15.65;94.33;98699.41;10457396;28;20167;-74
2021/08/02 01:39:09;;;;;;;2.83;2.43;;;;;;;15.57;94.58;98706.38;10457984;28;20223;-75
2021/08/02 01:44:28;;;;;;;2.60;2.40;;;;;;;15.35;96.61;98710.19;10458236;28;20191;-75
2021/08/02 01:50:02;;;;;;;2.80;2.60;;;;;;;15.26;97.14;98705.31;10456944;28;20183;-74
2021/08/02 01:55:22;;;;;;;3.00;2.80;;;;;;;15.19;97.46;98713.75;10470870;28;20176;-74
2021/08/02 02:00:48;;;;;;;3.33;3.13;;;;;;;15.08;97.52;98712.50;10456022;28;20250;-74
2021/08/02 02:06:12;;;;;;;3.60;3.30;;;;;;;15.00;98.82;98721.47;10456224;28;20187;-75
2021/08/02 02:11:32;;;;;;;3.23;2.93;;;;;;;14.91;99.57;98718.53;10456133;28;20176;-75
2021/08/02 02:16:55;;;;;;;3.27;2.97;;;;;;;14.81;100.00;98719.59;10455665;28;20552;-75
2021/08/02 02:22:15;;;;;;;3.70;3.40;;;;;;;14.80;100.00;98723.56;10456318;28;20207;-75
2021/08/02 02:27:36;;;;;;;3.97;3.07;;;;;;;14.64;100.00;98731.91;10454929;28;20275;-74
2021/08/02 02:32:55;;;;;;;3.73;3.43;;;;;;;14.61;100.00;98738.31;10455155;28;20250;-73
2021/08/02 02:38:16;;;;;;;2.30;2.20;;;;;;;14.60;100.00;98736.75;10455075;28;20223;-74
2021/08/02 02:43:36;;;;;;;2.70;2.50;;;;;;;14.47;100.00;98738.66;10456233;28;20266;-74
2021/08/02 02:48:57;;;;;;;4.33;2.80;;;;;;;14.42;100.00;98739.19;10454948;28;20195;-73
2021/08/02 02:54:19;;;;;;;3.00;2.80;;;;;;;14.35;100.00;98750.44;10455918;28;20568;-73
2021/08/02 02:59:38;;;;;;;3.20;3.00;;;;;;;14.26;100.00;98744.72;10454856;28;20675;-74
2021/08/02 03:04:59;;;;;;;3.13;2.50;;;;;;;14.27;100.00;98746.28;10454759;28;20176;-74
2021/08/02 03:10:21;;;;;;;3.60;3.30;;;;;;;14.22;100.00;98748.78;10466536;28;20660;-73
2021/08/02 03:15:42;;;;;;;3.20;3.00;;;;;;;14.07;100.00;98750.28;10495861;28;20175;-73
2021/08/02 03:21:01;;;;;;;3.10;2.90;;;;;;;14.06;100.00;98763.31;10496646;28;20198;-74
2021/08/02 03:26:27;;;;;;;3.83;3.13;;;;;;;14.19;100.00;98769.78;10495842;28;20202;-73
2021/08/02 03:31:53;;;;;;;4.37;3.40;;;;;;;14.03;100.00;98772.50;10485553;28;20187;-74
2021/08/02 03:37:15;;;;;;;3.23;3.03;;;;;;;13.98;100.00;98767.47;10454905;28;20257;-75
2021/08/02 03:42:39;;;;;;;3.33;3.03;;;;;;;13.97;100.00;98782.50;10462439;28;20254;-76
2021/08/02 03:47:58;;;;;;;4.00;3.03;;;;;;;13.97;100.00;98790.78;10460537;28;20179;-75
2021/08/02 03:53:17;;;;;;;2.90;2.70;;;;;;;13.90;100.00;98781.88;10461461;28;20211;-76
2021/08/02 03:58:37;;;;;;;3.30;3.10;;;;;;;14.03;100.00;98793.84;10462337;28;20171;-74
2021/08/02 04:03:56;;;;;;;3.20;3.00;;;;;;;14.07;100.00;98798.09;10487277;28;20627;-75
2021/08/02 04:09:15;;;;;;;3.27;3.07;;;;;;;14.06;100.00;98806.81;10502212;28;20224;-74
2021/08/02 04:14:36;;;;;;;3.30;3.10;;;;;;;13.91;100.00;98805.56;10503307;28;20179;-75
2021/08/02 04:19:55;;;;;;;3.50;3.17;;;;;;;14.00;100.00;98820.38;10502713;28;20202;-74
2021/08/02 04:25:14;;;;;;;3.00;2.73;;;;;;;14.06;100.00;98824.19;10502796;28;20244;-75
2021/08/02 04:30:33;;;;;;;5.30;3.70;;;;;;;14.12;100.00;98824.50;10500284;28;20175;-75
2021/08/02 04:35:52;;;;;;;5.67;3.30;;;;;;;14.24;100.00;98823.84;10477814;28;20215;-74
2021/08/02 04:41:11;;;;;;;3.13;2.93;;;;;;;14.22;100.00;98829.78;10464954;28;20231;-75
2021/08/02 04:46:30;;;;;;;3.07;2.87;;;;;;;14.42;100.00;98830.53;10459285;28;20202;-75
2021/08/02 04:51:49;;;;;;;3.03;2.83;;;;;;;14.54;100.00;98832.59;10459911;28;20180;-75
2021/08/02 04:57:08;;;;;;;2.70;2.50;;;;;;;14.62;100.00;98828.44;10460093;28;20632;-75
2021/08/02 05:02:27;;;;;;;4.13;3.03;;;;;;;14.70;100.00;98832.63;10473263;28;20574;-75
2021/08/02 05:07:46;;;;;;;3.27;2.70;;;;;;;14.61;100.00;98832.44;10501160;28;20532;-75
2021/08/02 05:13:05;;;;;;;3.57;2.90;;;;;;;14.63;100.00;98832.78;10499892;28;20202;-74
2021/08/02 05:18:24;;;;;;;9.07;3.00;;;;;;;14.83;100.00;98841.78;10486038;28;20191;-75
2021/08/02 05:23:43;;;;;;;2.73;2.53;;;;;;;14.97;100.00;98838.66;10470964;28;20558;-75
2021/08/02 05:29:02;;;;;;;3.23;2.93;;;;;;;15.34;100.00;98834.16;10458700;28;20184;-75
2021/08/02 05:34:21;;;;;;;3.30;3.00;;;;;;;15.51;98.28;98838.41;10457282;28;20179;-75
2021/08/02 05:39:41;;;;;;;3.30;3.10;;;;;;;15.57;98.50;98841.44;10457955;28;20235;-76
2021/08/02 05:45:00;;;;;;;4.10;3.33;;;;;;;15.67;97.68;98837.59;10457022;28;20254;-75
2021/08/02 05:50:19;;;;;;;3.17;2.77;;;;;;;16.04;96.76;98840.47;10458020;28;20530;-75
2021/08/02 05:55:38;;;;;;;4.40;2.90;;;;;;;16.32;94.76;98842.44;10457981;28;20544;-75
2021/08/02 06:00:57;;;;;;;6.13;3.00;;;;;;;16.09;93.68;98857.38;10455316;28;20203;-74
2021/08/02 06:06:17;;;;;;;7.57;3.77;;;;;;;16.11;94.37;98868.03;10456402;28;20258;-74
2021/08/02 06:11:36;;;;;;;3.70;3.10;;;;;;;16.20;93.96;98859.81;10456098;28;20650;-74
2021/08/02 06:16:55;;;;;;;3.43;3.13;;;;;;;16.10;94.16;98858.13;10455675;28;20168;-75
2021/08/02 06:22:14;;;;;;;4.03;2.87;;;;;;;16.13;94.04;98863.59;10459545;28;20285;-75
2021/08/02 06:27:33;;;;;;;3.57;3.27;;;;;;;16.32;94.45;98878.50;10497028;28;20186;-74
2021/08/02 06:32:52;;;;;;;3.00;2.70;;;;;;;16.36;93.93;98873.66;10496706;28;20182;-74
2021/08/02 06:38:11;;;;;;;4.70;3.50;;;;;;;16.29;94.06;98884.97;10496570;28;20218;-74
2021/08/02 06:43:30;;;;;;;3.73;3.43;;;;;;;16.58;92.88;98877.31;10497069;28;20214;-74
2021/08/02 06:48:49;;;;;;;4.57;3.50;;;;;;;16.71;91.70;98875.34;10495416;28;20183;-73
2021/08/02 06:54:08;;;;;;;3.77;3.43;;;;;;;16.82;90.10;98871.75;10475368;28;20626;-73
2021/08/02 06:59:27;;;;;;;3.60;3.40;;;;;;;17.18;87.99;98872.19;10496030;28;20767;-73
2021/08/02 07:04:46;;;;;;;3.23;3.03;;;;;;;17.13;86.59;98874.75;10456835;28;20179;-73
2021/08/02 07:10:06;;;;;;;5.20;3.10;;;;;;;17.72;84.22;98869.91;10454446;28;20250;-74
2021/08/02 07:15:25;;;;;;;3.73;3.40;;;;;;;18.46;80.44;98874.28;10462078;28;20637;-74
2021/08/02 07:20:45;;;;;;;3.43;3.23;;;;;;;18.22;81.98;98878.03;10462503;28;20202;-74
2021/08/02 07:26:04;;;;;;;3.80;3.50;;;;;;;18.96;77.48;98882.25;10463485;28;20207;-74
2021/08/02 07:31:23;;;;;;;3.73;3.43;;;;;;;19.07;75.83;98883.38;10462305;28;20175;-75
2021/08/02 07:36:42;;;;;;;3.03;2.83;;;;;;;18.57;78.78;98877.44;10491757;28;20186;-74
2021/08/02 07:42:02;;;;;;;4.30;3.97;;;;;;;19.50;75.02;98880.41;10503608;28;20230;-74
2021/08/02 07:47:21;;;;;;;7.50;4.20;;;;;;;19.93;73.17;98874.53;10503048;28;20170;-74
2021/08/02 07:52:41;;;;;;;3.40;2.77;;;;;;;20.44;68.60;98881.75;10503907;28;20273;-74
2021/08/02 07:58:00;;;;;;;3.07;2.87;;;;;;;20.35;69.30;98885.38;10503778;28;20178;-74
2021/08/02 08:03:20;;;;;;;12.10;2.83;;;;;;;20.71;67.47;98884.47;10501068;28;20202;-74
2021/08/02 08:08:38;;;;;;;2.97;2.77;;;;;;;19.67;71.19;98884.44;10462177;28;20191;-73
2021/08/02 08:13:57;;;;;;;2.90;2.70;;;;;;;19.64;72.21;98883.38;10461673;28;20258;-74
2021/08/02 08:19:16;;;;;;;3.13;2.93;;;;;;;19.68;70.08;98886.75;10460256;28;20234;-74
2021/08/02 08:24:36;;;;;;;3.73;3.33;;;;;;;19.74;68.83;98884.13;10460582;28;20203;-74
2021/08/02 08:29:55;;;;;;;3.63;3.33;;;;;;;19.42;70.38;98893.88;10459864;28;20183;-75
2021/08/02 08:35:14;;;;;;;3.10;2.80;;;;;;;20.65;66.47;98881.53;10478180;28;20183;-74
2021/08/02 08:40:35;;;;;;;3.50;2.87;;;;;;;21.68;60.09;98891.59;10501528;28;20226;-74
2021/08/02 08:45:54;;;;;;;3.67;3.40;;;;;;;21.71;63.38;98892.66;10500685;28;20167;-76
2021/08/02 08:51:14;;;;;;;2.93;2.73;;;;;;;22.37;60.29;98875.16;10501657;28;20179;-75
2021/08/02 08:56:33;;;;;;;3.47;2.70;;;;;;;22.45;54.92;98873.50;10501594;28;20170;-74
2021/08/02 09:02:03;;;;;;;3.23;2.50;;;;;;;22.34;55.60;98878.91;10499576;28;20680;-74
2021/08/02 09:07:33;;;;;;;3.23;2.30;;;;;;;23.09;54.91;98872.25;10464933;28;20638;-75
2021/08/02 09:12:53;;;;;;;2.27;2.17;;;;;;;22.70;55.72;98876.47;10459578;28;20207;-75
2021/08/02 09:18:22;;;;;;;2.40;2.20;;;;;;;22.24;56.38;98866.19;10458123;28;20171;-74
2021/08/02 09:23:49;;;;;;;2.40;2.20;;;;;;;22.10;58.04;98868.97;10459023;28;20196;-75
2021/08/02 09:29:11;;;;;;;2.67;2.20;;;;;;;21.89;56.88;98868.06;10457728;28;20171;-74
2021/08/02 09:34:30;;;;;;;3.87;2.40;;;;;;;22.32;56.13;98863.84;10469132;28;20202;-74
2021/08/02 09:39:49;;;;;;;2.40;2.20;;;;;;;22.22;56.78;98853.94;10498212;28;20284;-74
2021/08/02 09:45:08;;;;;;;2.73;2.53;;;;;;;23.48;53.57;98851.91;10498222;28;20214;-74
2021/08/02 09:50:29;;;;;;;3.00;2.67;;;;;;;23.27;51.02;98845.97;10499299;28;20179;-73
2021/08/02 09:55:49;;;;;;;2.90;2.70;;;;;;;23.33;53.12;98856.03;10497886;28;20176;-74
2021/08/02 10:01:09;;;;;;;4.00;2.53;;;;;;;22.96;52.77;98854.16;10496198;28;20206;-74
2021/08/02 10:06:28;;;;;;;2.67;2.47;;;;;;;22.71;52.14;98849.19;10473082;28;20182;-74
2021/08/02 10:11:47;;;;;;;2.30;2.10;;;;;;;21.99;55.86;98858.34;10497676;28;20171;-73
2021/08/02 10:17:10;;;;;;;3.20;2.70;;;;;;;21.50;57.62;98848.94;10496980;28;20170;-74
2021/08/02 10:22:29;;;;;;;2.40;2.30;;;;;;;21.55;58.03;98844.75;10497762;28;20203;-73
2021/08/02 10:27:48;;;;;;;2.60;2.40;;;;;;;22.26;56.57;98829.28;10497180;28;20174;-75
2021/08/02 10:33:09;;;;;;;2.70;2.47;;;;;;;22.17;54.21;98838.56;10493751;28;20261;-75
2021/08/02 10:38:45;;;;;;;5.73;2.83;;;;;;;22.02;58.14;98834.97;10456187;28;20693;-75
2021/08/02 10:44:15;;;;;;;3.90;2.67;;;;;;;21.81;57.50;98838.91;10455244;28;20556;-75
2021/08/02 10:49:34;;;;;;;2.60;2.40;;;;;;;23.31;51.76;98827.66;10454520;28;20184;-76
2021/08/02 10:54:53;;;;;;;2.60;2.40;;;;;;;23.76;52.60;98833.34;10456049;28;20689;-75
2021/08/02 11:00:20;;;;;;;4.20;2.57;;;;;;;23.94;50.25;98821.06;10453341;28;20195;-75
2021/08/02 11:05:39;;;;;;;2.40;2.20;;;;;;;24.19;49.85;98804.19;10480459;28;20191;-74
2021/08/02 11:10:58;;;;;;;7.40;3.40;;;;;;;24.18;50.16;98819.50;10496282;28;20261;-74
2021/08/02 11:16:18;;;;;;;2.40;2.20;;;;;;;24.83;50.92;98812.91;10495812;28;20166;-75
2021/08/02 11:21:37;;;;;;;2.60;2.40;;;;;;;23.74;49.74;98812.66;10496263;28;20209;-75
2021/08/02 11:27:02;;;;;;;2.40;2.30;;;;;;;23.08;51.87;98811.03;10495584;28;20175;-75
2021/08/02 11:32:22;;;;;;;2.20;2.00;;;;;;;22.82;51.99;98802.44;10494255;28;20179;-75
2021/08/02 11:37:48;;;;;;;2.20;2.00;;;;;;;21.98;53.80;98811.97;10454916;28;20183;-75
2021/08/02 11:43:07;;;;;;;2.67;2.47;;;;;;;21.95;55.43;98807.34;10455653;28;20211;-75
2021/08/02 11:48:27;;;;;;;3.47;2.30;;;;;;;21.86;55.03;98810.25;10471066;28;20186;-75
2021/08/02 11:53:46;;;;;;;3.00;2.27;;;;;;;23.82;50.60;98794.88;10496266;28;20178;-75
2021/08/02 11:59:05;;;;;;;2.87;2.20;;;;;;;24.25;47.09;98790.94;10497021;28;20220;-75
2021/08/02 12:04:24;;;;;;;2.10;2.00;;;;;;;23.10;49.75;98791.66;10501143;28;20564;-75
2021/08/02 12:09:45;;;;;;;2.60;2.50;;;;;;;22.88;52.11;98805.34;10501785;28;20187;-75
2021/08/02 12:15:06;;;;;;;2.57;2.00;;;;;;;22.64;51.89;98807.53;10497334;28;20179;-75
2021/08/02 12:20:39;;;;;;;3.67;2.40;;;;;;;22.53;53.68;98799.72;10497483;28;20293;-75
2021/08/02 12:25:58;;;;;;;2.80;2.40;;;;;;;22.70;52.14;98792.34;10501930;28;20539;-75
2021/08/02 12:31:21;;;;;;;2.33;1.90;;;;;;;22.98;50.74;98784.31;10494147;28;20175;-75
2021/08/02 12:36:40;;;;;;;2.80;2.13;;;;;;;23.35;49.31;98781.25;10491119;28;20174;-74
2021/08/02 12:41:59;;;;;;;2.57;2.37;;;;;;;23.41;48.92;98796.16;10500103;28;20250;-75
2021/08/02 12:47:18;;;;;;;7.13;1.90;;;;;;;22.99;48.36;98785.88;10499358;28;20179;-75
2021/08/02 12:52:37;;;;;;;4.77;2.47;;;;;;;22.87;51.26;98784.94;10500515;28;20654;-75
2021/08/02 12:57:56;;;;;;;4.40;2.60;;;;;;;22.61;51.80;98791.69;10500421;28;20175;-74
2021/08/02 13:03:15;;;;;;;5.40;2.30;;;;;;;22.70;53.49;98781.13;10486819;28;20744;-74
2021/08/02 13:08:34;;;;;;;2.53;2.30;;;;;;;23.10;52.77;98781.19;10459465;28;20210;-73
2021/08/02 13:13:53;;;;;;;3.03;2.23;;;;;;;23.87;50.72;98773.72;10458310;28;20183;-75
2021/08/02 13:19:12;;;;;;;2.80;2.30;;;;;;;25.24;45.64;98761.50;10456965;28;20219;-74
2021/08/02 13:30:10;;;;;;;2.97;2.67;;;;;;;23.24;52.02;98765.56;10471318;28;20231;-76
2021/08/02 13:35:29;;;;;;;5.93;3.17;;;;;;;24.29;48.43;98766.19;10480583;28;20633;-75
2021/08/02 13:40:48;;;;;;;2.27;2.07;;;;;;;23.53;48.49;98752.91;10498801;28;20222;-75
2021/08/02 13:46:08;;;;;;;4.80;2.40;;;;;;;23.10;52.03;98753.13;10474544;28;20191;-74
2021/08/02 13:51:27;;;;;;;5.33;2.80;;;;;;;22.65;53.13;98767.78;10484182;28;20641;-74
2021/08/02 13:56:47;;;;;;;3.10;2.90;;;;;;;21.43;65.64;98814.94;10471386;28;20183;-76
2021/08/02 14:02:07;;;;;;;8.17;3.50;;;;;;;17.60;88.88;98829.78;10458734;28;20215;-78
2021/08/02 14:07:25;;;;;;;7.20;3.87;;;;;;;16.91;98.50;98832.22;10456002;28;20175;-77
2021/08/02 14:12:48;;;;;;;5.93;3.67;;;;;;;16.70;100.00;98826.56;10478576;28;20176;-77
2021/08/02 14:18:07;;;;;;;7.40;3.30;;;;;;;17.20;95.80;98814.13;10455802;28;20274;-76
2021/08/02 14:23:28;;;;;;;4.40;3.20;;;;;;;17.90;96.00;98809.59;10455509;28;20207;-76
2021/08/02 14:28:47;;;;;;;5.07;2.90;;;;;;;18.74;93.28;98812.66;10466544;28;20191;-77
2021/08/02 14:34:06;;;;;;;5.53;3.23;;;;;;;19.23;91.63;98802.25;10455091;28;20191;-78
2021/08/02 14:39:29;;;;;;;3.33;2.77;;;;;;;19.84;89.75;98794.31;10454922;28;20629;-77
2021/08/02 14:44:57;;;;;;;2.70;2.50;;;;;;;20.37;88.21;98793.44;10457248;28;20207;-78
2021/08/02 14:50:16;;;;;;;2.23;2.03;;;;;;;20.40;85.15;98817.66;10455036;28;20180;-79
2021/08/02 14:55:36;;;;;;;2.37;1.90;;;;;;;20.72;75.43;98816.16;10466096;28;20281;-78
2021/08/02 15:00:59;;;;;;;1.70;1.60;;;;;;;20.45;74.78;98810.66;10469313;28;20243;-77
2021/08/02 15:06:26;;;;;;;2.53;1.60;;;;;;;20.79;72.11;98813.78;10468951;28;20262;-79
2021/08/02 15:11:45;;;;;;;1.70;1.47;;;;;;;21.18;69.15;98815.41;10455777;28;20640;-77
2021/08/02 15:17:05;;;;;;;1.60;1.20;;;;;;;21.19;68.74;98811.38;10454343;28;20179;-76
2021/08/02 15:22:41;;;;;;;1.53;1.43;;;;;;;20.79;71.22;98808.19;10454931;28;20215;-77
2021/08/02 15:28:01;;;;;;;1.47;1.37;;;;;;;21.36;66.36;98812.50;10456326;28;20649;-76
2021/08/02 15:33:20;;;;;;;2.13;1.30;;;;;;;22.62;60.67;98813.63;10488085;28;20182;-76
2021/08/02 15:38:41;;;;;;;1.70;1.60;;;;;;;21.86;58.75;98818.66;10462726;28;20219;-76
2021/08/02 15:44:00;;;;;;;2.90;2.40;;;;;;;21.45;59.95;98823.63;10462729;28;20222;-76
2021/08/02 15:49:19;;;;;;;2.13;1.93;;;;;;;20.56;63.93;98836.84;10490870;28;20265;-75
2021/08/02 15:54:42;;;;;;;2.53;2.43;;;;;;;20.48;66.41;98844.03;10503594;28;20626;-76
2021/08/02 16:00:05;;;;;;;2.20;2.10;;;;;;;20.37;66.07;98838.16;10501327;28;20938;-75
2021/08/02 16:05:30;;;;;;;2.00;1.90;;;;;;;20.57;63.94;98835.59;10503110;28;20167;-76
2021/08/02 16:10:56;;;;;;;2.23;2.03;;;;;;;20.36;64.76;98839.38;10502236;28;20171;-76
2021/08/02 16:16:16;;;;;;;1.90;1.80;;;;;;;20.23;65.27;98838.06;10501009;28;20186;-75
2021/08/02 16:21:35;;;;;;;5.63;1.90;;;;;;;20.21;65.35;98835.72;10502421;28;20214;-74
2021/08/02 16:26:54;;;;;;;2.17;1.97;;;;;;;19.97;68.59;98842.44;10501692;28;20261;-75
2021/08/02 16:32:13;;;;;;;1.80;1.70;;;;;;;19.78;69.67;98846.44;10501385;28;20178;-76
2021/08/02 16:37:32;;;;;;;1.70;1.60;;;;;;;19.65;68.88;98843.06;10502283;28;20210;-75
2021/08/02 16:42:51;;;;;;;1.50;1.30;;;;;;;19.50;67.84;98858.88;10489088;28;20214;-76
2021/08/02 16:48:10;;;;;;;1.80;1.70;;;;;;;19.46;67.20;98857.47;10464318;28;20179;-74
2021/08/02 16:53:30;;;;;;;2.13;1.30;;;;;;;19.49;68.44;98856.53;10460181;28;20657;-74
2021/08/02 16:58:50;;;;;;;1.47;1.33;;;;;;;19.25;69.03;98863.94;10483411;28;20190;-74
2021/08/02 17:04:09;;;;;;;1.87;1.70;;;;;;;19.30;68.37;98854.97;10500218;28;20183;-74
2021/08/02 17:09:29;;;;;;;1.30;1.20;;;;;;;19.38;67.22;98854.19;10501133;28;20170;-73
2021/08/02 17:14:48;;;;;;;1.67;1.57;;;;;;;19.50;66.52;98858.06;10498737;28;20171;-75
2021/08/02 17:20:08;;;;;;;3.93;1.30;;;;;;;19.57;67.97;98850.19;10500371;28;20265;-74
2021/08/02 17:25:27;;;;;;;1.60;1.50;;;;;;;19.82;66.57;98846.28;10500489;28;20532;-76
2021/08/02 17:30:46;;;;;;;3.97;1.50;;;;;;;21.11;62.71;98852.94;10498864;28;20178;-75
2021/08/02 17:36:05;;;;;;;1.53;1.20;;;;;;;22.27;56.99;98858.84;10500125;28;20175;-74
2021/08/02 17:41:24;;;;;;;3.20;1.60;;;;;;;21.69;55.64;98851.16;10494941;28;20692;-76
2021/08/02 17:46:44;;;;;;;1.70;1.60;;;;;;;20.22;62.93;98858.84;10457348;28;20179;-74
2021/08/02 17:52:04;;;;;;;1.50;1.40;;;;;;;22.01;57.77;98860.69;10457162;28;20175;-75
2021/08/02 17:57:22;;;;;;;1.50;1.30;;;;;;;21.87;57.23;98861.41;10457074;28;20179;-74
2021/08/02 18:02:41;;;;;;;1.40;1.30;;;;;;;19.79;65.48;98864.00;10455972;28;20290;-75
2021/08/02 18:08:01;;;;;;;1.87;1.73;;;;;;;19.05;69.25;98876.72;10456520;28;20175;-75
2021/08/02 18:13:20;;;;;;;1.60;1.40;;;;;;;18.74;71.12;98873.97;10476772;28;20187;-74
2021/08/02 18:18:39;;;;;;;2.90;1.40;;;;;;;18.56;72.07;98871.13;10496777;28;20198;-76
2021/08/02 18:23:57;;;;;;;2.73;1.73;;;;;;;18.30;73.63;98879.31;10497734;28;20672;-74
2021/08/02 18:29:17;;;;;;;4.50;1.63;;;;;;;18.21;75.43;98874.50;10497127;28;20179;-75
2021/08/02 18:34:36;;;;;;;4.40;1.80;;;;;;;18.14;75.76;98885.06;10496845;28;20649;-74
2021/08/02 18:39:56;;;;;;;2.30;2.10;;;;;;;18.01;77.11;98889.94;10497367;28;20218;-75
2021/08/02 18:45:15;;;;;;;2.40;2.20;;;;;;;17.89;79.30;98894.31;10457738;28;20187;-75
2021/08/02 18:50:34;;;;;;;3.00;2.00;;;;;;;17.86;80.21;98900.00;10456139;28;20399;-75
2021/08/02 18:55:53;;;;;;;1.50;1.40;;;;;;;17.77;81.47;98905.50;10456128;28;20214;-75
2021/08/02 19:01:12;;;;;;;2.70;1.90;;;;;;;17.87;82.47;98904.34;10454385;28;20207;-74
2021/08/02 19:06:31;;;;;;;2.70;1.87;;;;;;;17.63;82.81;98903.22;10454869;28;20195;-74
2021/08/02 19:12:13;;;;;;;2.00;1.80;;;;;;;17.57;82.50;98893.13;10474114;28;20175;-75
2021/08/02 19:17:37;;;;;;;5.53;1.80;;;;;;;17.48;83.64;98904.16;10503075;28;20582;-75
2021/08/02 19:22:57;;;;;;;2.03;1.90;;;;;;;17.41;85.63;98907.97;10503876;28;20206;-74
2021/08/02 19:28:19;;;;;;;2.17;2.00;;;;;;;17.43;86.20;98913.06;10505230;28;20183;-75
2021/08/02 19:33:38;;;;;;;2.23;2.03;;;;;;;17.25;87.18;98919.19;10503717;28;20183;-74
2021/08/02 19:38:57;;;;;;;4.43;2.27;;;;;;;17.19;88.58;98922.97;10504496;28;20673;-75
2021/08/02 19:44:22;;;;;;;4.23;2.10;;;;;;;17.11;90.87;98941.91;10473343;28;20632;-74
2021/08/02 19:49:50;;;;;;;2.13;1.93;;;;;;;16.96;90.81;98938.00;10461719;28;20179;-74
2021/08/02 19:55:10;;;;;;;3.20;2.80;;;;;;;16.93;90.76;98941.69;10462758;28;20265;-74
2021/08/02 20:00:29;;;;;;;3.10;2.40;;;;;;;16.91;90.44;98944.13;10487895;28;20210;-74
2021/08/02 20:05:51;;;;;;;3.60;2.60;;;;;;;16.77;91.61;98943.00;10462250;28;20265;-75
2021/08/02 20:11:12;;;;;;;2.73;2.50;;;;;;;16.75;92.33;98946.25;10461948;28;20183;-73
2021/08/02 20:16:31;;;;;;;2.83;2.00;;;;;;;16.55;95.20;98945.66;10459573;28;20196;-73
2021/08/02 20:21:53;;;;;;;2.47;2.30;;;;;;;16.37;97.12;98944.63;10460127;28;20559;-75
2021/08/02 20:27:16;;;;;;;2.70;2.53;;;;;;;16.39;95.73;98950.50;10460532;28;20172;-75
2021/08/02 20:32:41;;;;;;;2.70;2.50;;;;;;;16.31;96.70;98944.38;10476644;28;20186;-73
2021/08/02 20:38:02;;;;;;;2.13;1.93;;;;;;;16.34;97.55;98946.28;10502431;28;20230;-74
2021/08/02 20:43:22;;;;;;;1.97;1.80;;;;;;;16.27;97.80;98954.78;10501827;28;20210;-75
2021/08/02 20:48:44;;;;;;;2.80;2.60;;;;;;;16.20;98.98;98956.97;10500758;28;20174;-74
2021/08/02 20:54:09;;;;;;;4.83;4.30;;;;;;;16.10;99.68;98967.16;10501920;28;20183;-74
2021/08/02 20:59:28;;;;;;;3.60;3.10;;;;;;;16.05;100.00;98961.38;10500605;28;20660;-75
2021/08/02 21:05:14;;;;;;;5.00;3.17;;;;;;;15.95;100.00;98974.28;10465218;28;20638;-74
2021/08/02 21:10:57;;;;;;;4.63;2.83;;;;;;;15.95;100.00;98973.53;10459949;28;20172;-74
2021/08/02 21:16:17;;;;;;;4.37;2.50;;;;;;;15.75;100.00;98966.53;10458297;28;20186;-75
2021/08/02 21:21:39;;;;;;;2.80;2.60;;;;;;;15.69;100.00;98966.28;10458928;28;20211;-74
2021/08/02 21:27:00;;;;;;;2.77;2.57;;;;;;;15.65;100.00;98962.03;10459176;28;20203;-75
2021/08/02 21:32:19;;;;;;;3.70;3.40;;;;;;;15.53;100.00;98969.09;10474317;28;20540;-74
2021/08/02 21:37:38;;;;;;;3.10;2.80;;;;;;;15.51;100.00;98959.66;10462452;28;20615;-74
2021/08/02 21:42:57;;;;;;;4.30;2.63;;;;;;;15.52;100.00;98969.53;10457966;28;20210;-74
2021/08/02 21:48:16;;;;;;;2.90;2.70;;;;;;;15.39;100.00;98977.75;10456112;28;20191;-74
2021/08/02 21:53:35;;;;;;;4.70;3.00;;;;;;;15.13;100.00;98975.97;10457048;28;20258;-74
2021/08/02 21:58:54;;;;;;;4.40;3.00;;;;;;;15.02;100.00;98968.38;10456932;28;20180;-74
2021/08/02 22:04:13;;;;;;;3.23;3.03;;;;;;;14.94;100.00;98964.19;10456413;28;20543;-74
2021/08/02 22:09:32;;;;;;;3.90;3.43;;;;;;;14.87;100.00;98970.69;10456358;28;20246;-74
2021/08/02 22:14:51;;;;;;;3.63;3.40;;;;;;;14.95;100.00;98977.63;10456156;28;20172;-75
2021/08/02 22:20:11;;;;;;;3.90;3.00;;;;;;;14.73;100.00;98978.50;10457044;28;20722;-74
2021/08/02 22:25:30;;;;;;;3.87;3.67;;;;;;;14.62;100.00;98997.34;10457127;28;20175;-73
2021/08/02 22:30:49;;;;;;;3.00;2.80;;;;;;;14.45;100.00;98993.75;10457622;28;20174;-73
2021/08/02 22:36:08;;;;;;;8.17;2.83;;;;;;;14.39;100.00;98987.16;10456692;28;20179;-73
2021/08/02 22:41:33;;;;;;;4.03;2.80;;;;;;;14.36;100.00;98988.00;10454514;28;20281;-74
2021/08/02 22:46:54;;;;;;;2.90;2.70;;;;;;;14.30;100.00;98993.69;10455184;28;20622;-73
2021/08/02 22:52:15;;;;;;;5.30;2.63;;;;;;;14.09;100.00;98986.53;10456205;28;20595;-73
2021/08/02 22:57:35;;;;;;;3.90;2.97;;;;;;;14.09;100.00;98989.31;10456133;28;20179;-75
2021/08/02 23:02:57;;;;;;;4.97;3.40;;;;;;;14.10;100.00;98982.56;10469986;28;20666;-75
2021/08/02 23:08:16;;;;;;;3.00;2.80;;;;;;;13.96;100.00;98984.81;10455859;28;20199;-74
2021/08/02 23:13:36;;;;;;;2.60;2.40;;;;;;;13.93;100.00;98986.47;10455816;28;20266;-75
2021/08/02 23:18:57;;;;;;;3.17;2.87;;;;;;;13.91;100.00;98993.63;10454432;28;20207;-75
2021/08/02 23:24:16;;;;;;;3.43;3.13;;;;;;;13.93;100.00;98992.00;10454641;28;20183;-74
2021/08/02 23:29:38;;;;;;;4.13;2.90;;;;;;;13.91;100.00;98977.78;10455476;28;20756;-74
2021/08/02 23:35:02;;;;;;;3.30;3.10;;;;;;;13.95;100.00;98975.75;10466547;28;20718;-74
2021/08/02 23:40:22;;;;;;;3.73;3.23;;;;;;;13.93;100.00;98969.88;10454615;28;20261;-74
2021/08/02 23:45:41;;;;;;;3.03;2.83;;;;;;;14.09;100.00;98978.25;10453969;28;20175;-74
2021/08/02 23:51:01;;;;;;;3.20;3.00;;;;;;;14.00;100.00;98969.72;10454172;28;20179;-74
2021/08/02 23:56:20;;;;;;;2.87;2.67;;;;;;;13.99;100.00;98967.41;10460467;28;20172;-75
